Time;durP1;ratioP1;P1;durP2;ratioP2;P2;SDS_P1;SDS_P2;PMS_P1;PMS_P2;Temp;Humidity;BMP_temperature;BMP_pressure;BME280_temperature;BME280_humidity;BME280_pressure;Samples;Min_cycle;Max_cycle;Signal;HPM_P1;HPM_P2
2023/10/11 00:03:13;;;;;;;18.90;10.53;;;410.00;2355.20;;;;;;5085214;28;20056;-62
2023/10/11 00:05:40;;;;;;;13.30;9.25;;;410.00;2355.20;;;;;;5090167;28;20028;-61
2023/10/11 00:08:13;;;;;;;23.63;9.80;;;410.00;2355.20;;;;;;5089229;28;20016;-61
2023/10/11 00:11:07;;;;;;;15.88;11.13;;;410.00;2355.20;;;;;;5089981;28;20111;-60
2023/10/11 00:13:35;;;;;;;15.65;9.40;;;409.90;2355.20;;;;;;5086761;28;20044;-61
2023/10/11 00:16:08;;;;;;;15.30;9.30;;;409.90;2355.20;;;;;;5089273;28;20857;-61
2023/10/11 00:18:42;;;;;;;20.23;10.27;;;409.80;2355.20;;;;;;5089340;28;20086;-61
2023/10/11 00:21:11;;;;;;;11.98;9.27;;;409.60;2355.20;;;;;;5089723;28;20055;-61
2023/10/11 00:23:44;;;;;;;14.75;10.05;;;409.70;2355.20;;;;;;5089861;28;20059;-61
2023/10/11 00:26:14;;;;;;;16.20;10.98;;;409.60;2355.20;;;;;;5089680;28;20527;-60
2023/10/11 00:28:40;;;;;;;17.10;9.95;;;409.60;2355.20;;;;;;5083013;28;20425;-61
2023/10/11 00:31:13;;;;;;;19.65;10.23;;;409.60;2355.20;;;;;;5063224;28;20442;-61
2023/10/11 00:33:39;;;;;;;16.50;10.02;;;409.60;2355.20;;;;;;5086223;28;20448;-61
2023/10/11 00:36:06;;;;;;;19.80;10.73;;;409.60;2355.20;;;;;;5089827;28;20107;-61
2023/10/11 00:38:32;;;;;;;17.05;10.73;;;384.90;2329.60;;;;;;5088897;28;20107;-61
2023/10/11 00:41:12;;;;;;;15.52;10.45;;;384.90;2329.60;;;;;;5089281;28;20051;-61
2023/10/11 00:43:55;;;;;;;15.88;10.85;;;384.80;2329.60;;;;;;5089366;28;20054;-62
2023/10/11 00:46:36;;;;;;;17.52;10.82;;;384.70;2329.60;;;;;;5088572;28;20024;-61
2023/10/11 00:49:13;;;;;;;12.85;9.63;;;384.80;2329.60;;;;;;5089212;28;20418;-61
2023/10/11 00:51:44;;;;;;;15.82;10.38;;;384.80;2329.60;;;;;;5088323;28;20024;-61
2023/10/11 00:54:15;;;;;;;20.65;10.50;;;384.70;2329.60;;;;;;5088760;28;20125;-61
2023/10/11 00:56:45;;;;;;;18.33;11.80;;;384.60;2329.60;;;;;;5088918;28;20022;-61
2023/10/11 00:59:15;;;;;;;19.70;10.10;;;384.50;2329.60;;;;;;5088187;28;20036;-61
2023/10/11 01:01:44;;;;;;;18.33;10.80;;;384.40;2329.60;;;;;;5081795;28;20625;-60
2023/10/11 01:04:11;;;;;;;19.95;11.15;;;384.40;2329.60;;;;;;5074609;28;20024;-60
2023/10/11 01:06:37;;;;;;;17.48;11.18;;;384.40;2329.60;;;;;;5089026;28;20093;-60
2023/10/11 01:09:15;;;;;;;15.90;10.38;;;384.50;2329.60;;;;;;5088328;28;20376;-61
2023/10/11 01:11:41;;;;;;;18.85;10.50;;;384.40;2329.60;;;;;;5088664;28;20110;-60
2023/10/11 01:14:08;;;;;;;21.10;10.63;;;384.40;2329.60;;;;;;5089352;28;20028;-60
2023/10/11 01:16:35;;;;;;;14.43;10.25;;;384.30;2329.60;;;;;;5088542;28;20404;-60
2023/10/11 01:19:01;;;;;;;19.38;11.55;;;384.40;2329.60;;;;;;5088475;28;20537;-60
2023/10/11 01:21:32;;;;;;;14.98;11.45;;;384.30;2329.60;;;;;;5088338;28;20170;-61
2023/10/11 01:23:58;;;;;;;17.67;10.27;;;384.40;2329.60;;;;;;5088112;28;20564;-61
2023/10/11 01:26:24;;;;;;;19.70;12.38;;;384.30;2329.60;;;;;;5088332;28;20020;-59
2023/10/11 01:28:51;;;;;;;15.85;10.60;;;384.20;2329.60;;;;;;5087906;28;20024;-60
2023/10/11 01:31:16;;;;;;;13.95;10.50;;;384.30;2329.60;;;;;;5086242;28;20433;-60
2023/10/11 01:33:46;;;;;;;17.08;11.10;;;384.20;2329.60;;;;;;5059110;28;20044;-60
2023/10/11 01:36:15;;;;;;;13.75;10.02;;;384.10;2329.60;;;;;;5068146;28;20048;-60
2023/10/11 01:38:48;;;;;;;19.63;11.77;;;384.20;2329.60;;;;;;5086069;28;20032;-62
2023/10/11 01:41:21;;;;;;;16.13;10.02;;;384.00;2329.60;;;;;;5088559;28;20485;-64
2023/10/11 01:43:49;;;;;;;16.58;9.27;;;359.10;2329.60;;;;;;5088858;28;20107;-60
2023/10/11 01:46:24;;;;;;;17.10;10.50;;;359.10;2329.60;;;;;;5088050;28;20016;-60
2023/10/11 01:48:50;;;;;;;14.88;9.60;;;359.30;2329.60;;;;;;5088749;28;20107;-60
2023/10/11 01:51:20;;;;;;;16.98;10.88;;;359.30;2329.60;;;;;;5087686;28;20017;-60
2023/10/11 01:53:46;;;;;;;15.57;10.75;;;359.30;2329.60;;;;;;5088472;28;20118;-60
2023/10/11 01:56:13;;;;;;;16.58;10.93;;;359.30;2329.60;;;;;;5088416;28;20555;-61
2023/10/11 01:58:42;;;;;;;22.27;11.38;;;359.30;2329.60;;;;;;5088461;28;20040;-60
2023/10/11 02:01:22;;;;;;;14.82;10.57;;;359.30;2329.60;;;;;;5087178;28;20023;-60
2023/10/11 02:03:52;;;;;;;22.55;11.98;;;359.30;2329.60;;;;;;5081070;28;20486;-60
2023/10/11 02:06:19;;;;;;;17.73;10.85;;;359.30;2329.60;;;;;;5088326;28;20165;-60
2023/10/11 02:08:44;;;;;;;18.08;10.82;;;359.20;2329.60;;;;;;5077811;28;20020;-60
2023/10/11 02:11:10;;;;;;;23.00;11.10;;;359.20;2329.60;;;;;;5077052;28;20023;-60
2023/10/11 02:13:39;;;;;;;15.40;9.73;;;359.30;2329.60;;;;;;5092497;28;20036;-61
2023/10/11 02:16:14;;;;;;;17.90;12.10;;;359.30;2329.60;;;;;;5092237;28;20439;-60
2023/10/11 02:18:43;;;;;;;15.60;10.30;;;359.30;2329.60;;;;;;5091844;28;20034;-60
2023/10/11 02:21:09;;;;;;;19.27;11.65;;;359.20;2329.60;;;;;;5092029;28;20040;-60
2023/10/11 02:23:42;;;;;;;23.85;11.48;;;359.30;2329.60;;;;;;5091375;28;20024;-60
2023/10/11 02:26:14;;;;;;;16.67;11.77;;;359.30;2329.60;;;;;;5091702;28;20070;-61
2023/10/11 02:28:40;;;;;;;17.73;11.10;;;359.30;2329.60;;;;;;5088865;28;20466;-60
2023/10/11 02:31:07;;;;;;;15.80;11.30;;;384.10;2329.60;;;;;;5071556;28;20031;-64
2023/10/11 02:33:33;;;;;;;19.70;11.32;;;359.30;2329.60;;;;;;5087076;28;20062;-61
2023/10/11 02:36:08;;;;;;;17.40;12.35;;;359.20;2329.60;;;;;;5091605;28;20073;-61
2023/10/11 02:38:57;;;;;;;25.55;12.15;;;359.20;2329.60;;;;;;5089916;28;20016;-60
2023/10/11 02:41:25;;;;;;;15.02;10.80;;;359.20;2329.60;;;;;;5076978;28;20028;-60
2023/10/11 02:43:57;;;;;;;15.25;11.13;;;359.20;2329.60;;;;;;5091525;28;20381;-60
2023/10/11 02:46:25;;;;;;;18.08;11.95;;;359.20;2329.60;;;;;;5091301;28;20378;-61
2023/10/11 02:49:05;;;;;;;17.30;11.45;;;359.10;2329.60;;;;;;5091531;28;20016;-60
2023/10/11 02:51:35;;;;;;;16.92;10.50;;;359.10;2329.60;;;;;;5091013;28;20021;-61
2023/10/11 02:54:04;;;;;;;14.73;10.48;;;359.10;2329.60;;;;;;5091150;28;20342;-60
2023/10/11 02:56:46;;;;;;;18.27;10.68;;;359.00;2329.60;;;;;;5091078;28;20023;-60
2023/10/11 02:59:19;;;;;;;12.18;9.18;;;359.00;2329.60;;;;;;5090892;28;20040;-61
2023/10/11 03:01:59;;;;;;;;;;;359.00;2329.60;;;;;;5091316;28;20016;-60
2023/10/11 03:04:48;;;;;;;16.95;10.70;;;359.00;2329.60;;;;;;5090711;28;19957;-62
2023/10/11 03:07:23;;;;;;;18.27;9.85;;;359.00;2329.60;;;;;;5090998;28;20055;-61
2023/10/11 03:09:50;;;;;;;16.10;9.88;;;358.90;2329.60;;;;;;5091331;28;20016;-62
2023/10/11 03:12:19;;;;;;;17.30;9.25;;;358.90;2329.60;;;;;;5089679;28;20045;-60
2023/10/11 03:14:45;;;;;;;18.05;9.32;;;358.90;2329.60;;;;;;5069128;28;20024;-62
2023/10/11 03:17:15;;;;;;;17.80;10.45;;;358.80;2329.60;;;;;;5085762;28;20107;-60
2023/10/11 03:19:45;;;;;;;15.82;9.77;;;358.80;2329.60;;;;;;5090814;28;20016;-60
2023/10/11 03:22:19;;;;;;;15.90;9.75;;;358.80;2329.60;;;;;;5090255;28;20515;-60
2023/10/11 03:24:49;;;;;;;16.02;10.30;;;358.80;2329.60;;;;;;5090205;28;20551;-60
2023/10/11 03:27:16;;;;;;;15.98;10.05;;;358.70;2329.60;;;;;;5090171;28;20481;-60
2023/10/11 03:29:41;;;;;;;14.13;10.43;;;358.70;2329.60;;;;;;5090825;28;20484;-60
2023/10/11 03:32:07;;;;;;;18.10;11.43;;;358.70;2329.60;;;;;;5090562;28;20016;-60
2023/10/11 03:34:33;;;;;;;17.90;11.38;;;358.70;2329.60;;;;;;5090336;28;20055;-60
2023/10/11 03:36:59;;;;;;;13.88;11.10;;;358.60;2329.60;;;;;;5090525;28;20105;-61
2023/10/11 03:39:39;;;;;;;15.50;11.15;;;358.60;2329.60;;;;;;5090426;28;20031;-60
2023/10/11 03:44:44;;;;;;;19.90;10.90;;;358.60;2329.60;;;;;;5076839;28;20177;-60
2023/10/11 03:47:14;;;;;;;18.45;10.68;;;358.50;2329.60;;;;;;5074651;28;20273;-62
2023/10/11 03:52:22;;;;;;;14.18;9.02;;;358.50;2329.60;;;;;;5090350;28;20024;-61
2023/10/11 03:54:53;;;;;;;16.13;10.15;;;358.50;2329.60;;;;;;5089964;28;20036;-61
2023/10/11 03:57:19;;;;;;;15.85;10.25;;;358.40;2329.60;;;;;;5089449;28;20075;-60
2023/10/11 03:59:48;;;;;;;17.70;10.57;;;358.50;2329.60;;;;;;5089863;28;20082;-60
2023/10/11 04:02:18;;;;;;;15.13;10.43;;;358.50;2329.60;;;;;;5089964;28;20162;-66
2023/10/11 04:04:49;;;;;;;16.23;11.00;;;358.40;2329.60;;;;;;5089377;28;20066;-60
2023/10/11 04:07:22;;;;;;;19.48;12.05;;;358.40;2329.60;;;;;;5089511;28;20016;-60
2023/10/11 04:09:49;;;;;;;20.02;11.48;;;358.40;2329.60;;;;;;5089920;28;20020;-60
2023/10/11 04:12:15;;;;;;;16.45;11.45;;;358.50;2329.60;;;;;;5089414;28;20027;-60
2023/10/11 04:14:44;;;;;;;15.13;10.52;;;358.40;2329.60;;;;;;5089489;28;20028;-60
2023/10/11 04:19:50;;;;;;;14.85;11.13;;;333.70;2329.60;;;;;;5087212;28;20031;-61
2023/10/11 04:22:18;;;;;;;17.00;11.40;;;333.70;2329.60;;;;;;5075482;28;20032;-61
2023/10/11 04:24:48;;;;;;;16.80;12.27;;;333.70;2329.60;;;;;;5078829;28;20035;-61
2023/10/11 04:29:47;;;;;;;21.60;12.48;;;333.70;2329.60;;;;;;5089552;28;20061;-62
2023/10/11 04:32:14;;;;;;;14.95;11.45;;;333.70;2329.60;;;;;;5088598;28;20470;-61
2023/10/11 04:34:48;;;;;;;17.65;11.90;;;333.70;2329.60;;;;;;5089239;28;20072;-60
2023/10/11 04:37:27;;;;;;;17.15;11.07;;;333.70;2329.60;;;;;;5088569;28;20434;-60
2023/10/11 04:40:05;;;;;;;16.95;12.10;;;333.70;2329.60;;;;;;5088824;28;20059;-60
2023/10/11 04:42:32;;;;;;;17.02;11.52;;;333.60;2329.60;;;;;;5089457;28;20024;-60
2023/10/11 04:44:58;;;;;;;20.92;12.80;;;333.60;2329.60;;;;;;5075285;28;20028;-60
2023/10/11 04:47:25;;;;;;;17.50;12.20;;;333.60;2329.60;;;;;;5088731;28;20478;-61
2023/10/11 04:49:52;;;;;;;17.17;10.23;;;333.60;2329.60;;;;;;5085830;28;20035;-65
2023/10/11 04:52:36;;;;;;;18.02;11.48;;;333.70;2329.60;;;;;;5070410;28;20438;-60
2023/10/11 04:55:12;;;;;;;15.82;11.20;;;333.60;2329.60;;;;;;5088474;28;20039;-60
2023/10/11 04:57:49;;;;;;;18.65;12.10;;;333.60;2329.60;;;;;;5075129;28;20036;-60
2023/10/11 05:00:18;;;;;;;16.02;10.93;;;333.60;2329.60;;;;;;5088414;28;20461;-62
2023/10/11 05:02:51;;;;;;;19.27;11.93;;;333.60;2329.60;;;;;;5088970;28;20016;-61
2023/10/11 05:05:19;;;;;;;19.35;12.30;;;333.70;2329.60;;;;;;5070078;28;20043;-60
2023/10/11 05:07:55;;;;;;;19.50;12.57;;;333.70;2329.60;;;;;;5070896;28;20024;-64
2023/10/11 05:12:47;;;;;;;18.02;11.38;;;333.70;2329.60;;;;;;5086158;28;20055;-60
2023/10/11 05:15:15;;;;;;;17.52;12.93;;;358.40;2329.60;;;;;;5088522;28;20067;-61
2023/10/11 05:17:42;;;;;;;17.05;11.38;;;358.40;2329.60;;;;;;5087518;28;20032;-62
2023/10/11 05:25:37;;;;;;;26.67;16.08;;;358.60;2329.60;;;;;;5067089;28;20114;-60
2023/10/11 05:28:26;;;;;;;26.73;15.65;;;358.60;2329.60;;;;;;5069266;28;20545;-61
2023/10/11 05:31:06;;;;;;;21.10;15.70;;;358.70;2329.60;;;;;;5088495;28;20050;-60
2023/10/11 05:33:57;;;;;;;16.45;12.68;;;358.80;2329.60;;;;;;5088269;28;20052;-60
2023/10/11 05:52:55;;;;;;;22.13;13.05;;;384.10;2329.60;;;;;;4994445;28;20059;-61
2023/10/11 05:55:24;;;;;;;13.52;10.90;;;384.20;2329.60;;;;;;4976173;28;20445;-59
2023/10/11 05:57:50;;;;;;;15.52;11.75;;;384.20;2329.60;;;;;;4994951;28;20137;-60
2023/10/11 06:00:26;;;;;;;18.10;12.88;;;384.30;2329.60;;;;;;4976439;28;20042;-60
2023/10/11 06:02:53;;;;;;;19.55;13.45;;;384.50;2329.60;;;;;;4993515;28;20487;-61
2023/10/11 06:05:23;;;;;;;18.90;11.25;;;384.70;2329.60;;;;;;5006502;28;20064;-61
2023/10/11 06:08:00;;;;;;;17.65;13.30;;;409.60;2355.20;;;;;;5010417;28;20037;-60
2023/10/11 06:10:41;;;;;;;15.35;11.13;;;410.30;2355.20;;;;;;5009127;28;20468;-66
2023/10/11 06:13:12;;;;;;;15.45;11.40;;;435.50;2355.20;;;;;;5007614;28;20070;-60
2023/10/11 06:15:42;;;;;;;17.27;11.50;;;436.00;2355.20;;;;;;5001307;28;20054;-62
2023/10/11 06:18:35;;;;;;;17.77;11.85;;;461.30;2380.80;;;;;;5009788;28;20114;-60
2023/10/11 06:21:01;;;;;;;14.95;10.45;;;487.00;2380.80;;;;;;5022430;28;20127;-60
2023/10/11 06:23:27;;;;;;;14.98;10.60;;;512.90;2380.80;;;;;;5091690;28;20482;-61
2023/10/11 06:25:53;;;;;;;14.48;10.07;;;563.40;2432.00;;;;;;5073827;28;20028;-61
2023/10/11 06:28:30;;;;;;;14.40;9.82;;;564.10;2432.00;;;;;;5084806;28;20028;-61
2023/10/11 06:31:00;;;;;;;16.45;11.93;;;589.40;2406.40;;;;;;5079696;28;20028;-61
2023/10/11 06:33:27;;;;;;;12.30;10.90;;;640.00;2252.80;;;;;;5087221;28;20020;-62
2023/10/11 06:35:53;;;;;;;13.02;11.63;;;665.70;2150.40;;;;;;5069988;28;20094;-61
2023/10/11 06:38:21;;;;;;;14.00;12.00;;;691.20;2048.00;;;;;;5074776;28;20120;-66
2023/10/11 06:40:54;;;;;;;14.60;11.07;;;691.80;1971.20;;;;;;5083823;28;20040;-68
2023/10/11 06:43:20;;;;;;;13.23;9.77;;;716.90;1945.60;;;;;;5060605;28;20032;-68
2023/10/11 06:45:46;;;;;;;11.65;10.45;;;716.80;1920.00;;;;;;5064642;28;20032;-64
2023/10/11 06:48:15;;;;;;;18.35;14.38;;;691.40;1920.00;;;;;;5069718;28;20063;-68
2023/10/11 06:50:41;;;;;;;13.15;11.73;;;640.40;2022.40;;;;;;5067775;28;20501;-66
2023/10/11 06:53:09;;;;;;;16.70;11.98;;;614.50;2099.20;;;;;;5067883;28;20033;-64
2023/10/11 06:55:36;;;;;;;16.05;10.90;;;588.90;2252.80;;;;;;5056761;28;20076;-64
2023/10/11 06:58:09;;;;;;;19.63;11.63;;;563.20;2329.60;;;;;;5059477;28;20145;-66
2023/10/11 07:00:45;;;;;;;19.65;13.98;;;537.90;2380.80;;;;;;5067654;28;20024;-65
2023/10/11 07:03:26;;;;;;;20.92;14.98;;;538.30;2380.80;;;;;;5063953;28;20390;-64
2023/10/11 07:05:59;;;;;;;22.83;18.52;;;614.50;2201.60;;;;;;5071930;28;20025;-66
2023/10/11 07:08:35;;;;;;;27.20;19.52;;;;;;;;;;5074010;28;20032;-69
2023/10/11 07:11:16;;;;;;;22.83;17.58;;;691.50;1971.20;;;;;;5067285;28;20025;-68
2023/10/11 07:14:00;;;;;;;22.38;17.58;;;717.10;1920.00;;;;;;5080522;28;20514;-69
2023/10/11 07:16:27;;;;;;;18.70;15.73;;;742.40;1843.20;;;;;;5088329;28;20024;-65
2023/10/11 07:18:55;;;;;;;18.63;14.40;;;768.90;1740.80;;;;;;5087643;28;20735;-68
2023/10/11 07:21:26;;;;;;;19.45;14.60;;;794.20;1715.20;;;;;;5088621;28;20098;-68
2023/10/11 07:29:03;;;;;;;18.83;15.15;;;819.80;1587.20;;;;;;5074270;28;20039;-66
2023/10/11 07:31:34;;;;;;;18.98;15.18;;;819.40;1587.20;;;;;;5088654;28;20028;-66
2023/10/11 07:34:10;;;;;;;16.90;15.10;;;820.10;1561.60;;;;;;5088967;28;20040;-66
2023/10/11 07:36:38;;;;;;;18.67;13.43;;;845.70;1536.00;;;;;;5088453;28;20490;-68
2023/10/11 07:39:15;;;;;;;16.52;13.50;;;870.80;1484.80;;;;;;5080596;28;20450;-70
2023/10/11 07:41:44;;;;;;;19.60;14.15;;;870.90;1459.20;;;;;;5065191;28;20024;-71
2023/10/11 07:44:11;;;;;;;19.00;13.82;;;870.90;1459.20;;;;;;5068929;28;20359;-75
2023/10/11 07:46:38;;;;;;;25.10;15.20;;;845.00;1536.00;;;;;;5068667;28;20082;-74
2023/10/11 07:49:08;;;;;;;19.15;16.73;;;845.40;1510.40;;;;;;5086820;28;20046;-73
2023/10/11 07:51:41;;;;;;;26.70;17.55;;;819.80;1536.00;;;;;;5084833;28;20025;-68
2023/10/11 07:54:07;;;;;;;26.17;18.15;;;794.20;1612.80;;;;;;5067751;28;20395;-71
2023/10/11 07:56:37;;;;;;;26.10;18.65;;;819.30;1587.20;;;;;;5071557;28;20038;-71
2023/10/11 07:59:12;;;;;;;24.80;18.20;;;819.80;1561.60;;;;;;5082525;28;20023;-72
2023/10/11 08:01:44;;;;;;;35.10;20.15;;;845.40;1536.00;;;;;;5075403;28;20079;-71
2023/10/11 08:04:17;;;;;;;32.58;18.73;;;870.70;1484.80;;;;;;5063507;28;20564;-71
2023/10/11 08:06:46;;;;;;;33.63;18.80;;;845.30;1536.00;;;;;;5074382;28;20031;-71
2023/10/11 08:09:21;;;;;;;26.98;18.88;;;845.60;1510.40;;;;;;5088397;28;20028;-68
2023/10/11 08:11:53;;;;;;;30.67;18.88;;;844.90;1561.60;;;;;;5062995;28;20481;-72
2023/10/11 08:14:22;;;;;;;36.88;20.85;;;870.70;1484.80;;;;;;5087104;28;20371;-72
2023/10/11 08:16:52;;;;;;;28.83;18.88;;;871.30;1459.20;;;;;;5088708;28;20020;-72
2023/10/11 08:19:18;;;;;;;30.67;20.40;;;896.50;1408.00;;;;;;5087429;28;20024;-70
2023/10/11 08:21:54;;;;;;;30.63;18.17;;;896.50;1408.00;;;;;;5087663;28;20484;-69
2023/10/11 08:24:25;;;;;;;29.70;19.30;;;896.40;1433.60;;;;;;5086391;28;20055;-72
2023/10/11 08:27:05;;;;;;;19.17;15.98;;;871.10;1433.60;;;;;;5077712;28;20036;-71
2023/10/11 08:29:32;;;;;;;27.00;17.73;;;870.40;1484.80;;;;;;5083331;28;20115;-71
2023/10/11 08:31:59;;;;;;;23.73;17.42;;;896.40;1408.00;;;;;;5085565;28;20057;-70
2023/10/11 08:34:26;;;;;;;20.45;15.98;;;896.10;1408.00;;;;;;5063366;28;20035;-72
2023/10/11 08:36:55;;;;;;;17.45;14.85;;;870.90;1459.20;;;;;;5069533;28;20059;-70
2023/10/11 08:39:44;;;;;;;24.33;15.95;;;845.70;1484.80;;;;;;5079571;28;20021;-69
2023/10/11 08:42:14;;;;;;;20.13;17.50;;;871.10;1433.60;;;;;;5072006;28;20478;-70
2023/10/11 08:44:44;;;;;;;20.52;16.35;;;845.70;1484.80;;;;;;5080411;28;20020;-71
2023/10/11 08:47:16;;;;;;;24.00;15.75;;;845.70;1510.40;;;;;;5089487;28;20020;-72
2023/10/11 08:49:48;;;;;;;20.83;15.43;;;819.70;1561.60;;;;;;5089130;28;20058;-69
2023/10/11 08:52:24;;;;;;;21.48;16.00;;;819.60;1587.20;;;;;;5089278;28;20462;-69
2023/10/11 08:54:50;;;;;;;19.52;15.68;;;794.00;1612.80;;;;;;5089241;28;20127;-72
2023/10/11 08:57:23;;;;;;;22.10;16.13;;;819.20;1587.20;;;;;;5089349;28;20024;-73
2023/10/11 08:59:58;;;;;;;19.67;16.25;;;819.40;1587.20;;;;;;5089243;28;20032;-65
2023/10/11 09:02:29;;;;;;;16.63;14.93;;;793.80;1664.00;;;;;;5084487;28;20032;-67
2023/10/11 09:05:07;;;;;;;20.45;15.60;;;742.50;1740.80;;;;;;5070790;28;20473;-71
2023/10/11 09:07:44;;;;;;;25.90;15.82;;;717.20;1766.40;;;;;;5089147;28;20035;-67
2023/10/11 09:10:32;;;;;;;21.75;15.23;;;716.80;1766.40;;;;;;5089269;28;20028;-67
2023/10/11 09:13:00;;;;;;;22.42;14.75;;;666.30;1843.20;;;;;;5088790;28;20020;-67
2023/10/11 09:15:42;;;;;;;18.75;15.75;;;665.70;1894.40;;;;;;5088778;28;20036;-66
2023/10/11 09:18:13;;;;;;;16.77;14.45;;;665.70;1920.00;;;;;;5088430;28;20549;-65
2023/10/11 09:20:40;;;;;;;18.75;14.32;;;666.00;1920.00;;;;;;5088649;28;20040;-68
2023/10/11 09:23:06;;;;;;;24.25;14.93;;;640.70;1868.80;;;;;;5088444;28;20480;-68
2023/10/11 09:25:49;;;;;;;20.98;15.32;;;640.90;1868.80;;;;;;5089049;28;20370;-65
2023/10/11 09:28:16;;;;;;;19.40;14.93;;;665.60;1894.40;;;;;;5068475;28;20028;-68
2023/10/11 09:30:44;;;;;;;21.17;15.00;;;665.60;1920.00;;;;;;5088398;28;20024;-66
2023/10/11 09:33:17;;;;;;;17.60;15.00;;;615.30;1945.60;;;;;;5088575;28;20024;-69
2023/10/11 09:35:48;;;;;;;18.58;14.13;;;615.20;1971.20;;;;;;5071631;28;20032;-69
2023/10/11 09:38:19;;;;;;;16.13;12.63;;;640.20;1971.20;;;;;;5082733;28;20020;-67
2023/10/11 09:40:45;;;;;;;16.63;13.48;;;640.00;1971.20;;;;;;5074722;28;20032;-69
2023/10/11 09:43:16;;;;;;;19.58;12.90;;;615.10;1971.20;;;;;;5088678;28;20027;-68
2023/10/11 09:45:44;;;;;;;16.40;12.80;;;640.00;1945.60;;;;;;5087961;28;20083;-65
2023/10/11 09:48:15;;;;;;;20.92;14.05;;;614.90;1996.80;;;;;;5089109;28;20476;-68
2023/10/11 09:50:42;;;;;;;16.80;12.95;;;614.70;2022.40;;;;;;5074831;28;20027;-64
2023/10/11 09:53:12;;;;;;;15.07;13.35;;;614.40;2048.00;;;;;;5088863;28;20024;-64
2023/10/11 09:55:52;;;;;;;17.45;12.45;;;614.60;2022.40;;;;;;5088961;28;20078;-64
2023/10/11 09:58:21;;;;;;;16.33;12.55;;;614.80;2048.00;;;;;;5086768;28;20064;-66
2023/10/11 10:00:58;;;;;;;15.65;13.57;;;614.60;2048.00;;;;;;5064357;28;20078;-67
2023/10/11 10:03:24;;;;;;;15.63;11.32;;;614.80;2048.00;;;;;;5087988;28;20715;-68
2023/10/11 10:06:18;;;;;;;18.13;13.00;;;615.00;1996.80;;;;;;5088353;28;20469;-66
2023/10/11 10:09:18;;;;;;;13.35;11.77;;;614.70;2048.00;;;;;;5078777;28;20017;-68
2023/10/11 10:12:11;;;;;;;16.92;12.80;;;614.80;2048.00;;;;;;5075221;28;20024;-65
2023/10/11 10:14:38;;;;;;;17.30;12.07;;;614.80;2022.40;;;;;;5088341;28;20039;-69
2023/10/11 10:17:13;;;;;;;19.88;13.52;;;614.80;2022.40;;;;;;5088474;28;20111;-70
2023/10/11 10:19:43;;;;;;;17.45;12.30;;;614.60;2048.00;;;;;;5088474;28;20416;-64
2023/10/11 10:22:31;;;;;;;15.32;11.93;;;589.60;2073.60;;;;;;5087648;28;20134;-67
2023/10/11 10:25:20;;;;;;;14.40;11.02;;;589.60;2073.60;;;;;;5088274;28;20020;-65
2023/10/11 10:27:46;;;;;;;18.38;11.75;;;614.60;2048.00;;;;;;5087498;28;20029;-66
2023/10/11 10:30:17;;;;;;;18.10;11.75;;;614.40;2073.60;;;;;;5088041;28;20965;-67
2023/10/11 10:33:23;;;;;;;17.85;12.30;;;614.50;2073.60;;;;;;5082348;28;20025;-67
2023/10/11 10:35:49;;;;;;;19.42;12.38;;;614.50;2073.60;;;;;;5065847;28;20047;-67
2023/10/11 10:38:15;;;;;;;15.57;11.60;;;614.50;2073.60;;;;;;5089827;28;20047;-68
2023/10/11 10:40:45;;;;;;;12.32;10.45;;;614.40;2073.60;;;;;;5090319;28;20020;-68
2023/10/11 10:43:23;;;;;;;17.30;11.43;;;589.70;2073.60;;;;;;5073118;28;20016;-65
2023/10/11 10:45:50;;;;;;;12.77;10.43;;;589.70;2048.00;;;;;;5084153;28;20393;-66
2023/10/11 10:48:18;;;;;;;13.80;10.45;;;614.50;2048.00;;;;;;5088893;28;20023;-65
2023/10/11 10:50:52;;;;;;;15.15;11.10;;;614.50;2073.60;;;;;;5089531;28;20085;-66
2023/10/11 10:53:20;;;;;;;14.85;11.00;;;614.60;2048.00;;;;;;5076036;28;20023;-67
2023/10/11 10:55:46;;;;;;;16.60;11.70;;;614.40;2048.00;;;;;;5089494;28;20493;-66
2023/10/11 10:58:19;;;;;;;14.45;10.23;;;589.60;2073.60;;;;;;5089628;28;20562;-65
2023/10/11 11:00:51;;;;;;;17.00;11.68;;;614.40;2022.40;;;;;;5089403;28;20131;-66
2023/10/11 11:03:24;;;;;;;15.48;11.93;;;614.60;2048.00;;;;;;5089571;28;20028;-70
2023/10/11 11:05:57;;;;;;;15.45;11.13;;;614.80;2022.40;;;;;;5089220;28;20028;-64
2023/10/11 11:08:28;;;;;;;13.38;9.63;;;589.70;2022.40;;;;;;5089333;28;20043;-67
2023/10/11 11:11:25;;;;;;;16.05;10.32;;;614.50;2022.40;;;;;;5089057;28;20035;-65
2023/10/11 11:13:52;;;;;;;15.10;9.52;;;614.60;2022.40;;;;;;5062186;28;20079;-66
2023/10/11 11:16:26;;;;;;;12.73;9.07;;;614.80;1996.80;;;;;;5076151;28;20047;-66
2023/10/11 11:18:52;;;;;;;10.93;7.88;;;614.70;1971.20;;;;;;5089703;28;20032;-68
2023/10/11 11:21:22;;;;;;;10.10;8.82;;;614.60;1996.80;;;;;;5091557;28;20059;-66
2023/10/11 11:23:51;;;;;;;29.30;10.90;;;614.50;1971.20;;;;;;5090901;28;20031;-66
2023/10/11 11:26:22;;;;;;;11.50;9.25;;;614.50;1971.20;;;;;;5090944;28;20105;-67
2023/10/11 11:29:08;;;;;;;13.27;9.05;;;614.70;1971.20;;;;;;5090436;28;20044;-66
2023/10/11 11:31:53;;;;;;;12.70;8.07;;;614.50;1971.20;;;;;;5090786;28;20064;-66
2023/10/11 11:34:28;;;;;;;10.90;8.52;;;614.80;1945.60;;;;;;5091145;28;20036;-65
2023/10/11 11:37:04;;;;;;;11.60;7.65;;;614.80;1971.20;;;;;;5090174;28;20111;-66
2023/10/11 11:39:39;;;;;;;9.95;7.53;;;614.80;1945.60;;;;;;5091239;28;20020;-65
2023/10/11 11:42:24;;;;;;;12.35;7.72;;;614.80;1894.40;;;;;;5059271;28;20036;-66
2023/10/11 11:44:51;;;;;;;11.27;8.40;;;614.80;1894.40;;;;;;5077895;28;20035;-66
2023/10/11 11:47:22;;;;;;;12.05;8.68;;;614.80;1894.40;;;;;;5090722;28;20140;-67
2023/10/11 11:49:48;;;;;;;12.07;8.32;;;614.70;1945.60;;;;;;5090243;28;20028;-65
2023/10/11 11:52:16;;;;;;;13.18;8.85;;;614.70;1945.60;;;;;;5090493;28;20024;-67
2023/10/11 11:54:43;;;;;;;12.38;9.27;;;614.80;1945.60;;;;;;5089896;28;20032;-66
2023/10/11 11:57:09;;;;;;;11.10;8.98;;;614.70;1920.00;;;;;;5090187;28;20438;-66
2023/10/11 11:59:36;;;;;;;12.15;6.78;;;614.80;1920.00;;;;;;5089998;28;20110;-66
2023/10/11 12:02:02;;;;;;;9.77;6.43;;;614.80;1920.00;;;;;;5089819;28;20020;-66
2023/10/11 12:04:29;;;;;;;8.35;7.15;;;614.90;1868.80;;;;;;5089966;28;20024;-67
2023/10/11 12:07:03;;;;;;;8.57;6.93;;;614.80;1843.20;;;;;;5089769;28;20021;-66
2023/10/11 12:09:37;;;;;;;11.30;8.13;;;614.80;1894.40;;;;;;5090125;28;20013;-66
2023/10/11 12:12:05;;;;;;;16.05;7.78;;;614.60;1894.40;;;;;;5090263;28;20043;-66
2023/10/11 12:14:38;;;;;;;8.70;6.82;;;614.70;1894.40;;;;;;5076952;28;20036;-68
2023/10/11 12:17:10;;;;;;;;;;;614.40;1868.80;;;;;;5064314;28;20410;-67
2023/10/11 12:19:37;;;;;;;12.27;8.77;;;614.60;1894.40;;;;;;5088031;28;19904;-67
2023/10/11 12:22:04;;;;;;;14.02;7.85;;;614.60;1894.40;;;;;;5088113;28;20048;-68
2023/10/11 12:24:30;;;;;;;10.98;7.53;;;614.50;1894.40;;;;;;5087937;28;20035;-67
2023/10/11 12:26:58;;;;;;;10.05;6.97;;;614.50;1868.80;;;;;;5087583;28;20036;-68
2023/10/11 12:29:26;;;;;;;9.65;6.25;;;614.50;1868.80;;;;;;5087577;28;20119;-66
2023/10/11 12:31:55;;;;;;;9.05;6.93;;;614.50;1868.80;;;;;;5088010;28;20119;-66
2023/10/11 12:34:27;;;;;;;9.88;6.40;;;614.70;1843.20;;;;;;5087986;28;20061;-67
2023/10/11 12:36:53;;;;;;;8.35;6.65;;;614.70;1843.20;;;;;;5087123;28;20027;-66
2023/10/11 12:39:24;;;;;;;9.05;7.40;;;614.50;1843.20;;;;;;5087622;28;20051;-67
2023/10/11 12:41:53;;;;;;;7.35;6.18;;;614.50;1868.80;;;;;;5087595;28;20020;-66
2023/10/11 12:44:19;;;;;;;10.65;6.95;;;614.70;1817.60;;;;;;5087521;28;20056;-68
2023/10/11 12:46:49;;;;;;;9.95;6.10;;;614.60;1843.20;;;;;;5069655;28;20486;-67
2023/10/11 12:49:18;;;;;;;9.20;6.72;;;614.70;1843.20;;;;;;5080932;28;20028;-66
2023/10/11 12:51:46;;;;;;;9.90;5.80;;;614.60;1843.20;;;;;;5087422;28;20024;-68
2023/10/11 12:54:13;;;;;;;9.48;6.82;;;614.70;1843.20;;;;;;5087279;28;20035;-67
2023/10/11 12:56:39;;;;;;;8.57;6.53;;;614.70;1843.20;;;;;;5073800;28;20020;-66
2023/10/11 12:59:12;;;;;;;9.25;6.90;;;614.80;1817.60;;;;;;5087131;28;20421;-68
2023/10/11 13:01:52;;;;;;;8.73;6.47;;;614.80;1817.60;;;;;;5063047;28;20027;-68
2023/10/11 13:04:23;;;;;;;8.18;6.10;;;614.80;1817.60;;;;;;5087936;28;20369;-68
2023/10/11 13:06:50;;;;;;;8.52;6.72;;;614.80;1817.60;;;;;;5087819;28;20024;-68